sensor_id;sensor_type;location;lat;lon;timestamp;pressure;altitude;pressure_sealevel;temperature;humidity
22605;BME280;11469;49.024;8.246;2022-09-09T00:01:54;99981.25;;;15.43;100.00
22605;BME280;11469;49.024;8.246;2022-09-09T00:12:48;99978.03;;;15.48;100.00
22605;BME280;11469;49.024;8.246;2022-09-09T00:15:22;99981.66;;;15.45;100.00
22605;BME280;11469;49.024;8.246;2022-09-09T00:18:07;99976.44;;;15.43;100.00
22605;BME280;11469;49.024;8.246;2022-09-09T00:23:19;99969.16;;;15.46;100.00
22605;BME280;11469;49.024;8.246;2022-09-09T00:26:04;99978.84;;;15.48;100.00
22605;BME280;11469;49.024;8.246;2022-09-09T00:28:55;99975.22;;;15.48;100.00
22605;BME280;11469;49.024;8.246;2022-09-09T00:31:26;99967.94;;;15.50;100.00
22605;BME280;11469;49.024;8.246;2022-09-09T00:33:53;99980.47;;;15.56;100.00
22605;BME280;11469;49.024;8.246;2022-09-09T00:36:24;99979.28;;;15.57;100.00
22605;BME280;11469;49.024;8.246;2022-09-09T00:39:00;99980.47;;;15.56;100.00
22605;BME280;11469;49.024;8.246;2022-09-09T00:44:06;99978.47;;;15.57;100.00
22605;BME280;11469;49.024;8.246;2022-09-09T00:46:46;99980.44;;;15.60;100.00
22605;BME280;11469;49.024;8.246;2022-09-09T00:52:03;99984.47;;;15.66;100.00
22605;BME280;11469;49.024;8.246;2022-09-09T00:57:26;99985.69;;;15.69;100.00
22605;BME280;11469;49.024;8.246;2022-09-09T01:00:34;99989.72;;;15.71;100.00
22605;BME280;11469;49.024;8.246;2022-09-09T01:03:33;99996.16;;;15.72;100.00
22605;BME280;11469;49.024;8.246;2022-09-09T01:11:24;99999.41;;;15.70;100.00
22605;BME280;11469;49.024;8.246;2022-09-09T01:13:58;100003.44;;;15.80;100.00
22605;BME280;11469;49.024;8.246;2022-09-09T01:16:27;100010.69;;;15.81;100.00
22605;BME280;11469;49.024;8.246;2022-09-09T01:18:54;100002.22;;;15.77;100.00
22605;BME280;11469;49.024;8.246;2022-09-09T01:21:35;100011.91;;;15.80;100.00
22605;BME280;11469;49.024;8.246;2022-09-09T01:25:05;100008.25;;;15.86;100.00
22605;BME280;11469;49.024;8.246;2022-09-09T01:27:10;100012.28;;;16.00;100.00
22605;BME280;11469;49.024;8.246;2022-09-09T01:29:39;100004.19;;;16.05;100.00
22605;BME280;11469;49.024;8.246;2022-09-09T01:32:40;99996.84;;;16.18;100.00
22605;BME280;11469;49.024;8.246;2022-09-09T01:35:32;99995.22;;;16.17;100.00
22605;BME280;11469;49.024;8.246;2022-09-09T01:37:59;99998.47;;;16.16;100.00
22605;BME280;11469;49.024;8.246;2022-09-09T01:40:25;99996.44;;;16.16;100.00
22605;BME280;11469;49.024;8.246;2022-09-09T01:42:52;99997.66;;;16.19;100.00
22605;BME280;11469;49.024;8.246;2022-09-09T01:45:18;99996.84;;;16.15;100.00
22605;BME280;11469;49.024;8.246;2022-09-09T01:47:45;99977.94;;;15.98;100.00
22605;BME280;11469;49.024;8.246;2022-09-09T01:50:13;99973.53;;;15.86;100.00
22605;BME280;11469;49.024;8.246;2022-09-09T01:52:40;99977.19;;;15.79;100.00
22605;BME280;11469;49.024;8.246;2022-09-09T01:55:07;99975.19;;;15.73;100.00
22605;BME280;11469;49.024;8.246;2022-09-09T02:00:25;99967.53;;;15.63;100.00
22605;BME280;11469;49.024;8.246;2022-09-09T02:03:12;99960.28;;;15.54;100.00
22605;BME280;11469;49.024;8.246;2022-09-09T02:05:49;99974.00;;;15.49;100.00
22605;BME280;11469;49.024;8.246;2022-09-09T02:08:32;99978.84;;;15.45;100.00
22605;BME280;11469;49.024;8.246;2022-09-09T02:11:21;99980.84;;;15.44;100.00
22605;BME280;11469;49.024;8.246;2022-09-09T02:13:49;99984.09;;;15.43;100.00
22605;BME280;11469;49.024;8.246;2022-09-09T02:16:26;99988.94;;;15.46;100.00
22605;BME280;11469;49.024;8.246;2022-09-09T02:19:09;99993.78;;;15.42;100.00
22605;BME280;11469;49.024;8.246;2022-09-09T02:21:39;99988.13;;;15.38;100.00
22605;BME280;11469;49.024;8.246;2022-09-09T02:24:07;99978.44;;;15.36;100.00
22605;BME280;11469;49.024;8.246;2022-09-09T02:26:38;99977.22;;;15.33;100.00
22605;BME280;11469;49.024;8.246;2022-09-09T02:29:09;99974.41;;;15.33;100.00
22605;BME280;11469;49.024;8.246;2022-09-09T02:31:38;99967.16;;;15.28;100.00
22605;BME280;11469;49.024;8.246;2022-09-09T02:34:05;99969.56;;;15.30;100.00
22605;BME280;11469;49.024;8.246;2022-09-09T02:36:37;99968.75;;;15.33;100.00
22605;BME280;11469;49.024;8.246;2022-09-09T02:39:07;99974.41;;;15.30;100.00
22605;BME280;11469;49.024;8.246;2022-09-09T02:41:34;99965.94;;;15.30;100.00
22605;BME280;11469;49.024;8.246;2022-09-09T02:44:01;99965.94;;;15.30;100.00
22605;BME280;11469;49.024;8.246;2022-09-09T02:49:11;99972.41;;;15.26;100.00
22605;BME280;11469;49.024;8.246;2022-09-09T02:51:52;99968.34;;;15.27;100.00
22605;BME280;11469;49.024;8.246;2022-09-09T02:54:34;99962.31;;;15.25;100.00
22605;BME280;11469;49.024;8.246;2022-09-09T02:57:12;99955.44;;;15.23;100.00
22605;BME280;11469;49.024;8.246;2022-09-09T02:59:39;99963.53;;;15.24;100.00
22605;BME280;11469;49.024;8.246;2022-09-09T03:02:05;99957.06;;;15.24;100.00
22605;BME280;11469;49.024;8.246;2022-09-09T03:04:30;99953.03;;;15.21;100.00
22605;BME280;11469;49.024;8.246;2022-09-09T03:06:57;99963.13;;;15.22;100.00
22605;BME280;11469;49.024;8.246;2022-09-09T03:09:23;99965.94;;;15.22;100.00
22605;BME280;11469;49.024;8.246;2022-09-09T03:11:48;99969.97;;;15.18;100.00
22605;BME280;11469;49.024;8.246;2022-09-09T03:14:15;99972.78;;;15.21;100.00
22605;BME280;11469;49.024;8.246;2022-09-09T03:16:41;99975.63;;;15.18;100.00
22605;BME280;11469;49.024;8.246;2022-09-09T03:19:08;99973.19;;;15.16;100.00
22605;BME280;11469;49.024;8.246;2022-09-09T03:21:33;99978.03;;;15.16;100.00
22605;BME280;11469;49.024;8.246;2022-09-09T03:23:59;99986.91;;;15.14;100.00
22605;BME280;11469;49.024;8.246;2022-09-09T03:26:25;99971.19;;;15.17;100.00
22605;BME280;11469;49.024;8.246;2022-09-09T03:28:50;99965.13;;;15.18;100.00
22605;BME280;11469;49.024;8.246;2022-09-09T03:31:17;99973.59;;;15.22;100.00
22605;BME280;11469;49.024;8.246;2022-09-09T03:33:43;99977.22;;;15.19;100.00
22605;BME280;11469;49.024;8.246;2022-09-09T03:36:08;99975.63;;;15.21;100.00
22605;BME280;11469;49.024;8.246;2022-09-09T03:38:34;99965.94;;;15.19;100.00
22605;BME280;11469;49.024;8.246;2022-09-09T03:41:00;99972.78;;;15.21;100.00
22605;BME280;11469;49.024;8.246;2022-09-09T03:43:26;99978.03;;;15.23;100.00
22605;BME280;11469;49.024;8.246;2022-09-09T03:45:52;99977.22;;;15.22;100.00
22605;BME280;11469;49.024;8.246;2022-09-09T03:48:22;99972.00;;;15.21;100.00
22605;BME280;11469;49.024;8.246;2022-09-09T03:50:53;99973.59;;;15.22;100.00
22605;BME280;11469;49.024;8.246;2022-09-09T03:53:21;99967.56;;;15.23;100.00
22605;BME280;11469;49.024;8.246;2022-09-09T03:55:48;99976.81;;;15.24;100.00
22605;BME280;11469;49.024;8.246;2022-09-09T03:58:15;99978.03;;;15.23;100.00
22605;BME280;11469;49.024;8.246;2022-09-09T04:00:43;99979.25;;;15.22;100.00
22605;BME280;11469;49.024;8.246;2022-09-09T04:03:17;99980.47;;;15.24;100.00
22605;BME280;11469;49.024;8.246;2022-09-09T04:05:43;99983.69;;;15.26;100.00
22605;BME280;11469;49.024;8.246;2022-09-09T04:08:08;99988.94;;;15.24;100.00
22605;BME280;11469;49.024;8.246;2022-09-09T04:10:34;99982.47;;;15.24;100.00
22605;BME280;11469;49.024;8.246;2022-09-09T04:13:03;99986.09;;;15.24;100.00
22605;BME280;11469;49.024;8.246;2022-09-09T04:15:30;99984.50;;;15.20;100.00
22605;BME280;11469;49.024;8.246;2022-09-09T04:17:55;99988.91;;;15.17;100.00
22605;BME280;11469;49.024;8.246;2022-09-09T04:20:21;99988.91;;;15.17;100.00
22605;BME280;11469;49.024;8.246;2022-09-09T04:22:47;99995.78;;;15.16;100.00
22605;BME280;11469;49.024;8.246;2022-09-09T04:25:13;99999.41;;;15.17;100.00
22605;BME280;11469;49.024;8.246;2022-09-09T04:27:38;99994.97;;;15.16;100.00
22605;BME280;11469;49.024;8.246;2022-09-09T04:30:04;99996.19;;;15.15;100.00
22605;BME280;11469;49.024;8.246;2022-09-09T04:32:32;99995.78;;;15.16;100.00
22605;BME280;11469;49.024;8.246;2022-09-09T04:34:57;99990.94;;;15.20;100.00
22605;BME280;11469;49.024;8.246;2022-09-09T04:37:23;99997.00;;;15.22;100.00
22605;BME280;11469;49.024;8.246;2022-09-09T04:39:50;99996.19;;;15.25;100.00
22605;BME280;11469;49.024;8.246;2022-09-09T04:42:15;99999.81;;;15.26;100.00
22605;BME280;11469;49.024;8.246;2022-09-09T04:44:42;100001.84;;;15.29;100.00
22605;BME280;11469;49.024;8.246;2022-09-09T04:47:09;100003.44;;;15.30;100.00
22605;BME280;11469;49.024;8.246;2022-09-09T04:49:34;100009.50;;;15.32;100.00
22605;BME280;11469;49.024;8.246;2022-09-09T04:52:01;100008.28;;;15.33;100.00
22605;BME280;11469;49.024;8.246;2022-09-09T04:54:27;100011.50;;;15.32;100.00
22605;BME280;11469;49.024;8.246;2022-09-09T04:56:53;100019.59;;;15.33;100.00
22605;BME280;11469;49.024;8.246;2022-09-09T04:59:20;100018.78;;;15.36;100.00
22605;BME280;11469;49.024;8.246;2022-09-09T05:01:45;100013.94;;;15.33;100.00
22605;BME280;11469;49.024;8.246;2022-09-09T05:04:11;100017.56;;;15.34;100.00
22605;BME280;11469;49.024;8.246;2022-09-09T05:06:36;100026.84;;;15.34;100.00
22605;BME280;11469;49.024;8.246;2022-09-09T05:09:02;100021.59;;;15.36;100.00
22605;BME280;11469;49.024;8.246;2022-09-09T05:11:30;100024.44;;;15.36;100.00
22605;BME280;11469;49.024;8.246;2022-09-09T05:13:57;100027.25;;;15.36;100.00
22605;BME280;11469;49.024;8.246;2022-09-09T05:16:23;100022.81;;;15.39;100.00
22605;BME280;11469;49.024;8.246;2022-09-09T05:18:49;100028.06;;;15.33;100.00
22605;BME280;11469;49.024;8.246;2022-09-09T05:21:17;100023.22;;;15.37;100.00
22605;BME280;11469;49.024;8.246;2022-09-09T05:23:44;100022.81;;;15.39;100.00
22605;BME280;11469;49.024;8.246;2022-09-09T05:26:13;100024.44;;;15.40;100.00
22605;BME280;11469;49.024;8.246;2022-09-09T05:28:39;100028.06;;;15.37;100.00
22605;BME280;11469;49.024;8.246;2022-09-09T05:31:07;100024.41;;;15.33;100.00
22605;BME280;11469;49.024;8.246;2022-09-09T05:33:34;100031.69;;;15.34;100.00
22605;BME280;11469;49.024;8.246;2022-09-09T05:36:06;100031.28;;;15.35;100.00
22605;BME280;11469;49.024;8.246;2022-09-09T05:38:33;100030.88;;;15.37;100.00
22605;BME280;11469;49.024;8.246;2022-09-09T05:40:59;100039.75;;;15.39;100.00
22605;BME280;11469;49.024;8.246;2022-09-09T05:43:25;100046.22;;;15.39;100.00
22605;BME280;11469;49.024;8.246;2022-09-09T05:48:37;100038.16;;;15.45;100.00
22605;BME280;11469;49.024;8.246;2022-09-09T05:51:04;100044.19;;;15.50;100.00
22605;BME280;11469;49.024;8.246;2022-09-09T05:53:32;100044.19;;;15.54;100.00
22605;BME280;11469;49.024;8.246;2022-09-09T05:56:20;100043.38;;;15.60;100.00
22605;BME280;11469;49.024;8.246;2022-09-09T05:58:47;100050.25;;;15.67;100.00
22605;BME280;11469;49.024;8.246;2022-09-09T06:01:19;100055.09;;;15.77;100.00
22605;BME280;11469;49.024;8.246;2022-09-09T06:03:46;100061.53;;;15.81;100.00
22605;BME280;11469;49.024;8.246;2022-09-09T06:06:17;100059.94;;;15.80;100.00
22605;BME280;11469;49.024;8.246;2022-09-09T06:08:43;100052.66;;;15.82;100.00
22605;BME280;11469;49.024;8.246;2022-09-09T06:11:14;100054.69;;;15.89;100.00
22605;BME280;11469;49.024;8.246;2022-09-09T06:13:40;100052.66;;;15.93;100.00
22605;BME280;11469;49.024;8.246;2022-09-09T06:16:09;100055.06;;;15.98;100.00
22605;BME280;11469;49.024;8.246;2022-09-09T06:18:37;100057.06;;;16.05;100.00
22605;BME280;11469;49.024;8.246;2022-09-09T06:21:04;100069.16;;;16.12;100.00
22605;BME280;11469;49.024;8.246;2022-09-09T06:23:32;100064.31;;;16.13;100.00
22605;BME280;11469;49.024;8.246;2022-09-09T06:26:06;100055.41;;;16.14;100.00
22605;BME280;11469;49.024;8.246;2022-09-09T06:28:33;100054.59;;;16.21;100.00
22605;BME280;11469;49.024;8.246;2022-09-09T06:31:03;100054.97;;;16.26;100.00
22605;BME280;11469;49.024;8.246;2022-09-09T06:33:34;100052.97;;;16.27;100.00
22605;BME280;11469;49.024;8.246;2022-09-09T06:36:00;100057.78;;;16.30;100.00
22605;BME280;11469;49.024;8.246;2022-09-09T06:38:26;100053.34;;;16.36;100.00
22605;BME280;11469;49.024;8.246;2022-09-09T06:40:58;100048.88;;;16.42;100.00
22605;BME280;11469;49.024;8.246;2022-09-09T06:43:28;100049.66;;;16.46;100.00
22605;BME280;11469;49.024;8.246;2022-09-09T06:46:02;100047.63;;;16.54;100.00
22605;BME280;11469;49.024;8.246;2022-09-09T06:48:28;100055.63;;;16.63;99.33
22605;BME280;11469;49.024;8.246;2022-09-09T06:51:04;100052.00;;;16.69;98.86
22605;BME280;11469;49.024;8.246;2022-09-09T06:53:31;100049.16;;;16.69;97.43
22605;BME280;11469;49.024;8.246;2022-09-09T06:56:02;100049.56;;;16.71;97.83
22605;BME280;11469;49.024;8.246;2022-09-09T06:58:42;100050.34;;;16.79;97.46
22605;BME280;11469;49.024;8.246;2022-09-09T07:01:12;100053.16;;;16.82;96.80
22605;BME280;11469;49.024;8.246;2022-09-09T07:03:39;100054.72;;;16.90;96.25
22605;BME280;11469;49.024;8.246;2022-09-09T07:06:05;100059.88;;;17.03;96.29
22605;BME280;11469;49.024;8.246;2022-09-09T07:08:33;100056.59;;;17.11;95.65
22605;BME280;11469;49.024;8.246;2022-09-09T07:11:03;100057.75;;;17.21;94.99
22605;BME280;11469;49.024;8.246;2022-09-09T07:13:29;100054.06;;;17.28;93.40
22605;BME280;11469;49.024;8.246;2022-09-09T07:15:55;100065.44;;;17.24;93.56
22605;BME280;11469;49.024;8.246;2022-09-09T07:18:20;100058.97;;;17.20;93.86
22605;BME280;11469;49.024;8.246;2022-09-09T07:20:53;100063.47;;;17.10;92.89
22605;BME280;11469;49.024;8.246;2022-09-09T07:23:18;100062.69;;;17.10;92.85
22605;BME280;11469;49.024;8.246;2022-09-09T07:25:45;100059.88;;;17.03;93.12
22605;BME280;11469;49.024;8.246;2022-09-09T07:28:10;100053.88;;;16.97;94.13
22605;BME280;11469;49.024;8.246;2022-09-09T07:30:35;100052.28;;;16.96;94.69
22605;BME280;11469;49.024;8.246;2022-09-09T07:33:01;100053.06;;;17.00;94.16
22605;BME280;11469;49.024;8.246;2022-09-09T07:35:28;100053.78;;;17.08;92.98
22605;BME280;11469;49.024;8.246;2022-09-09T07:37:54;100061.00;;;17.19;93.29
22605;BME280;11469;49.024;8.246;2022-09-09T07:40:19;100063.84;;;17.19;92.57
22605;BME280;11469;49.024;8.246;2022-09-09T07:42:47;100065.78;;;17.33;92.94
22605;BME280;11469;49.024;8.246;2022-09-09T07:45:12;100077.84;;;17.44;92.47
22605;BME280;11469;49.024;8.246;2022-09-09T07:47:39;100067.13;;;17.66;92.25
22605;BME280;11469;49.024;8.246;2022-09-09T07:50:06;100065.66;;;17.96;92.16
22605;BME280;11469;49.024;8.246;2022-09-09T07:52:33;100064.78;;;18.40;89.88
22605;BME280;11469;49.024;8.246;2022-09-09T07:54:59;100066.56;;;18.61;86.80
22605;BME280;11469;49.024;8.246;2022-09-09T07:57:27;100075.41;;;18.66;86.12
22605;BME280;11469;49.024;8.246;2022-09-09T07:59:55;100073.63;;;18.79;85.42
22605;BME280;11469;49.024;8.246;2022-09-09T08:02:22;100076.75;;;18.88;85.14
22605;BME280;11469;49.024;8.246;2022-09-09T08:04:48;100082.78;;;18.90;84.01
22605;BME280;11469;49.024;8.246;2022-09-09T08:07:13;100088.03;;;18.92;83.62
22605;BME280;11469;49.024;8.246;2022-09-09T08:09:39;100089.06;;;18.78;81.88
22605;BME280;11469;49.024;8.246;2022-09-09T08:12:04;100085.31;;;18.85;83.54
22605;BME280;11469;49.024;8.246;2022-09-09T08:14:31;100088.53;;;18.87;84.03
22605;BME280;11469;49.024;8.246;2022-09-09T08:16:57;100086.44;;;18.91;84.06
22605;BME280;11469;49.024;8.246;2022-09-09T08:19:23;100097.75;;;18.95;83.13
22605;BME280;11469;49.024;8.246;2022-09-09T08:21:48;100089.13;;;19.02;82.78
22605;BME280;11469;49.024;8.246;2022-09-09T08:24:14;100089.13;;;19.02;82.54
22605;BME280;11469;49.024;8.246;2022-09-09T08:26:42;100073.94;;;19.15;83.69
22605;BME280;11469;49.024;8.246;2022-09-09T08:29:10;100087.97;;;19.26;81.35
22605;BME280;11469;49.024;8.246;2022-09-09T08:31:38;100095.41;;;19.43;81.40
22605;BME280;11469;49.024;8.246;2022-09-09T08:34:04;100093.94;;;19.35;81.07
22605;BME280;11469;49.024;8.246;2022-09-09T08:36:36;100093.13;;;19.35;80.99
22605;BME280;11469;49.024;8.246;2022-09-09T08:39:06;100099.19;;;19.37;81.48
22605;BME280;11469;49.024;8.246;2022-09-09T08:46:46;100100.91;;;19.58;78.55
22605;BME280;11469;49.024;8.246;2022-09-09T08:49:42;100101.78;;;19.54;78.42
22605;BME280;11469;49.024;8.246;2022-09-09T08:52:20;100108.31;;;19.51;80.36
22605;BME280;11469;49.024;8.246;2022-09-09T08:54:47;100106.91;;;19.36;82.39
22605;BME280;11469;49.024;8.246;2022-09-09T08:57:20;100101.75;;;19.28;81.36
22605;BME280;11469;49.024;8.246;2022-09-09T08:59:50;100104.13;;;19.33;82.37
22605;BME280;11469;49.024;8.246;2022-09-09T09:05:25;100108.94;;;19.36;79.68
22605;BME280;11469;49.024;8.246;2022-09-09T09:08:05;100101.34;;;19.56;79.86
22605;BME280;11469;49.024;8.246;2022-09-09T09:13:22;100096.16;;;19.98;77.81
22605;BME280;11469;49.024;8.246;2022-09-09T09:15:55;100093.50;;;20.10;78.44
22605;BME280;11469;49.024;8.246;2022-09-09T09:18:22;100098.19;;;20.20;76.86
22605;BME280;11469;49.024;8.246;2022-09-09T09:21:00;100104.94;;;20.30;77.49
22605;BME280;11469;49.024;8.246;2022-09-09T09:23:35;100111.97;;;20.45;76.03
22605;BME280;11469;49.024;8.246;2022-09-09T09:26:07;100106.88;;;20.33;72.14
22605;BME280;11469;49.024;8.246;2022-09-09T09:28:35;100110.06;;;20.39;72.76
22605;BME280;11469;49.024;8.246;2022-09-09T09:31:05;100106.34;;;20.42;72.87
22605;BME280;11469;49.024;8.246;2022-09-09T09:36:07;100099.06;;;20.17;77.36
22605;BME280;11469;49.024;8.246;2022-09-09T09:38:34;100096.06;;;19.81;78.08
22605;BME280;11469;49.024;8.246;2022-09-09T09:40:59;100106.84;;;19.90;79.44
22605;BME280;11469;49.024;8.246;2022-09-09T09:43:30;100104.88;;;19.87;79.04
22605;BME280;11469;49.024;8.246;2022-09-09T09:45:57;100105.88;;;20.00;79.43
22605;BME280;11469;49.024;8.246;2022-09-09T09:48:23;100100.69;;;20.18;79.17
22605;BME280;11469;49.024;8.246;2022-09-09T09:50:58;100104.78;;;20.37;77.78
22605;BME280;11469;49.024;8.246;2022-09-09T09:56:04;100084.56;;;20.75;73.64
22605;BME280;11469;49.024;8.246;2022-09-09T09:58:32;100084.50;;;20.95;72.64
22605;BME280;11469;49.024;8.246;2022-09-09T10:00:59;100090.22;;;20.95;70.28
22605;BME280;11469;49.024;8.246;2022-09-09T10:03:32;100092.53;;;20.80;69.46
22605;BME280;11469;49.024;8.246;2022-09-09T10:05:58;100096.34;;;20.93;69.99
22605;BME280;11469;49.024;8.246;2022-09-09T10:08:25;100091.88;;;20.92;67.53
22605;BME280;11469;49.024;8.246;2022-09-09T10:21:02;100079.13;;;21.52;65.52
22605;BME280;11469;49.024;8.246;2022-09-09T10:32:05;100085.00;;;20.73;72.71
22605;BME280;11469;49.024;8.246;2022-09-09T10:40:16;100066.91;;;20.80;76.47
22605;BME280;11469;49.024;8.246;2022-09-09T10:42:44;100068.09;;;20.82;77.51
22605;BME280;11469;49.024;8.246;2022-09-09T10:48:04;100056.19;;;20.87;74.12
22605;BME280;11469;49.024;8.246;2022-09-09T10:53:16;100062.50;;;21.15;68.30
22605;BME280;11469;49.024;8.246;2022-09-09T10:55:45;100052.50;;;21.27;66.25
22605;BME280;11469;49.024;8.246;2022-09-09T10:58:21;100060.41;;;21.35;63.75
22605;BME280;11469;49.024;8.246;2022-09-09T11:00:54;100053.72;;;21.42;63.90
22605;BME280;11469;49.024;8.246;2022-09-09T11:03:26;100060.50;;;21.48;62.04
22605;BME280;11469;49.024;8.246;2022-09-09T11:06:04;100057.28;;;21.46;60.64
22605;BME280;11469;49.024;8.246;2022-09-09T11:08:33;100055.25;;;21.46;60.88
22605;BME280;11469;49.024;8.246;2022-09-09T11:11:20;100056.78;;;21.67;60.54
22605;BME280;11469;49.024;8.246;2022-09-09T11:13:52;100045.97;;;21.75;60.48
22605;BME280;11469;49.024;8.246;2022-09-09T11:19:20;100038.03;;;22.15;59.06
22605;BME280;11469;49.024;8.246;2022-09-09T11:21:50;100050.06;;;22.06;58.76
22605;BME280;11469;49.024;8.246;2022-09-09T11:27:03;100039.00;;;22.08;57.55
22605;BME280;11469;49.024;8.246;2022-09-09T11:40:28;100026.44;;;21.90;57.61
22605;BME280;11469;49.024;8.246;2022-09-09T11:43:14;100033.13;;;22.28;57.50
22605;BME280;11469;49.024;8.246;2022-09-09T11:45:42;100016.81;;;22.58;55.34
22605;BME280;11469;49.024;8.246;2022-09-09T11:53:54;100016.09;;;23.08;54.05
22605;BME280;11469;49.024;8.246;2022-09-09T11:56:26;100009.69;;;22.91;55.20
22605;BME280;11469;49.024;8.246;2022-09-09T11:58:56;100008.94;;;22.74;55.59
22605;BME280;11469;49.024;8.246;2022-09-09T12:05:05;100020.16;;;22.40;57.89
22605;BME280;11469;49.024;8.246;2022-09-09T12:07:51;100023.59;;;21.90;60.48
22605;BME280;11469;49.024;8.246;2022-09-09T12:10:30;100020.88;;;21.70;61.29
22605;BME280;11469;49.024;8.246;2022-09-09T12:13:19;100025.16;;;21.62;63.04
22605;BME280;11469;49.024;8.246;2022-09-09T12:15:50;100024.16;;;21.52;63.56
22605;BME280;11469;49.024;8.246;2022-09-09T12:18:36;100029.69;;;21.27;63.00
22605;BME280;11469;49.024;8.246;2022-09-09T12:21:25;100034.00;;;21.15;63.34
22605;BME280;11469;49.024;8.246;2022-09-09T12:23:56;100043.75;;;20.98;63.95
22605;BME280;11469;49.024;8.246;2022-09-09T12:26:47;100046.84;;;20.87;67.00
22605;BME280;11469;49.024;8.246;2022-09-09T12:34:43;100038.41;;;20.44;73.00
22605;BME280;11469;49.024;8.246;2022-09-09T12:37:58;100044.38;;;20.30;75.38
22605;BME280;11469;49.024;8.246;2022-09-09T12:40:31;100036.47;;;20.17;77.96
22605;BME280;11469;49.024;8.246;2022-09-09T12:42:57;100037.94;;;20.26;79.48
22605;BME280;11469;49.024;8.246;2022-09-09T12:45:28;100032.34;;;20.62;83.82
22605;BME280;11469;49.024;8.246;2022-09-09T12:48:08;100027.91;;;20.61;78.14
22605;BME280;11469;49.024;8.246;2022-09-09T12:50:50;100023.31;;;20.67;75.63
22605;BME280;11469;49.024;8.246;2022-09-09T12:53:24;100035.56;;;20.64;75.29
22605;BME280;11469;49.024;8.246;2022-09-09T12:56:01;100050.75;;;20.57;78.24
22605;BME280;11469;49.024;8.246;2022-09-09T12:58:28;100054.53;;;20.31;74.17
22605;BME280;11469;49.024;8.246;2022-09-09T13:00:58;100037.63;;;20.00;70.75
22605;BME280;11469;49.024;8.246;2022-09-09T13:03:25;100040.31;;;20.07;73.21
22605;BME280;11469;49.024;8.246;2022-09-09T13:05:52;100041.63;;;20.03;74.62
22605;BME280;11469;49.024;8.246;2022-09-09T13:08:19;100035.00;;;20.09;75.35
22605;BME280;11469;49.024;8.246;2022-09-09T13:13:20;100021.59;;;19.86;76.92
22605;BME280;11469;49.024;8.246;2022-09-09T13:15:54;100008.97;;;19.68;78.57
22605;BME280;11469;49.024;8.246;2022-09-09T13:18:23;100012.44;;;19.79;77.76
22605;BME280;11469;49.024;8.246;2022-09-09T13:20:49;100000.50;;;19.64;75.24
22605;BME280;11469;49.024;8.246;2022-09-09T13:23:19;100003.19;;;19.95;76.18
22605;BME280;11469;49.024;8.246;2022-09-09T13:25:57;99993.94;;;20.10;73.85
22605;BME280;11469;49.024;8.246;2022-09-09T13:28:25;99994.75;;;20.11;74.75
22605;BME280;11469;49.024;8.246;2022-09-09T13:30:59;99989.59;;;20.26;73.38
22605;BME280;11469;49.024;8.246;2022-09-09T13:33:36;99986.94;;;20.35;72.47
22605;BME280;11469;49.024;8.246;2022-09-09T13:36:07;99988.78;;;20.45;74.16
22605;BME280;11469;49.024;8.246;2022-09-09T13:38:53;99991.13;;;20.50;73.69
22605;BME280;11469;49.024;8.246;2022-09-09T13:41:21;99985.72;;;20.56;73.40
22605;BME280;11469;49.024;8.246;2022-09-09T13:43:49;99991.69;;;20.61;72.82
22605;BME280;11469;49.024;8.246;2022-09-09T13:46:40;99993.75;;;20.61;72.62
22605;BME280;11469;49.024;8.246;2022-09-09T13:51:39;100009.81;;;20.51;73.22
22605;BME280;11469;49.024;8.246;2022-09-09T13:54:09;99982.81;;;20.39;82.37
22605;BME280;11469;49.024;8.246;2022-09-09T13:56:36;99985.03;;;20.08;80.53
22605;BME280;11469;49.024;8.246;2022-09-09T13:59:04;99982.78;;;20.00;81.31
22605;BME280;11469;49.024;8.246;2022-09-09T14:01:30;99983.09;;;20.25;83.14
22605;BME280;11469;49.024;8.246;2022-09-09T14:03:56;99987.53;;;20.46;80.56
22605;BME280;11469;49.024;8.246;2022-09-09T14:06:22;99976.59;;;20.64;82.75
22605;BME280;11469;49.024;8.246;2022-09-09T14:08:51;99984.59;;;20.69;80.62
22605;BME280;11469;49.024;8.246;2022-09-09T14:11:17;99980.50;;;20.70;79.62
22605;BME280;11469;49.024;8.246;2022-09-09T14:13:43;99987.00;;;20.71;79.74
22605;BME280;11469;49.024;8.246;2022-09-09T14:16:08;99987.38;;;20.73;77.86
22605;BME280;11469;49.024;8.246;2022-09-09T14:18:34;99984.53;;;20.73;74.53
22605;BME280;11469;49.024;8.246;2022-09-09T14:21:00;99983.09;;;20.81;77.22
22605;BME280;11469;49.024;8.246;2022-09-09T14:23:25;99982.56;;;20.86;76.92
22605;BME280;11469;49.024;8.246;2022-09-09T14:25:51;99984.22;;;21.03;75.97
22605;BME280;11469;49.024;8.246;2022-09-09T14:28:17;99987.88;;;21.04;79.80
22605;BME280;11469;49.024;8.246;2022-09-09T14:30:43;99991.97;;;21.03;82.21
22605;BME280;11469;49.024;8.246;2022-09-09T14:33:11;99983.75;;;20.88;80.19
22605;BME280;11469;49.024;8.246;2022-09-09T14:35:37;99980.44;;;20.90;78.70
22605;BME280;11469;49.024;8.246;2022-09-09T14:38:04;99986.56;;;20.72;77.74
22605;BME280;11469;49.024;8.246;2022-09-09T14:40:30;99989.50;;;20.69;78.47
22605;BME280;11469;49.024;8.246;2022-09-09T14:42:56;100006.13;;;20.70;80.22
22605;BME280;11469;49.024;8.246;2022-09-09T14:45:23;100026.88;;;20.51;85.65
22605;BME280;11469;49.024;8.246;2022-09-09T14:47:50;100028.47;;;19.89;80.37
22605;BME280;11469;49.024;8.246;2022-09-09T14:50:17;100036.66;;;19.64;83.78
22605;BME280;11469;49.024;8.246;2022-09-09T14:52:43;100027.28;;;19.40;85.12
22605;BME280;11469;49.024;8.246;2022-09-09T14:55:09;100020.34;;;19.41;84.82
22605;BME280;11469;49.024;8.246;2022-09-09T14:57:35;100011.81;;;19.41;82.99
22605;BME280;11469;49.024;8.246;2022-09-09T15:00:03;100016.56;;;19.51;81.57
22605;BME280;11469;49.024;8.246;2022-09-09T15:02:29;100015.34;;;19.52;81.53